Time;durP1;ratioP1;P1;durP2;ratioP2;P2;SDS_P1;SDS_P2;PMS_P1;PMS_P2;Temp;Humidity;BMP_temperature;BMP_pressure;BME280_temperature;BME280_humidity;BME280_pressure;Samples;Min_cycle;Max_cycle;Signal;HPM_P1;HPM_P2
2021/03/09 00:02:03;;;;;;;;;32.25;30.00;;;;;23.85;70.32;99331.38;4962454;28;10131;-70
2021/03/09 00:04:32;;;;;;;;;33.00;30.25;;;;;23.88;69.81;99328.00;4963332;28;9974;-70
2021/03/09 00:07:00;;;;;;;;;37.25;32.50;;;;;23.90;69.90;99325.75;4958914;28;10076;-69
2021/03/09 00:09:28;;;;;;;;;16.75;12.00;;;;;23.98;69.17;99327.53;4961759;28;10058;-69
2021/03/09 00:11:57;;;;;;;;;35.25;31.25;;;;;23.94;69.89;99337.41;4962622;28;10130;-69
2021/03/09 00:14:25;;;;;;;;;34.75;32.00;;;;;23.98;69.88;99346.41;4961170;28;10254;-69
2021/03/09 00:16:53;;;;;;;;;28.50;27.50;;;;;24.00;70.01;99347.63;4960859;28;10872;-69
2021/03/09 00:19:21;;;;;;;;;34.25;31.00;;;;;24.02;69.83;99348.06;4958779;28;9892;-69
2021/03/09 00:21:50;;;;;;;;;36.00;32.25;;;;;24.04;70.55;99342.34;4956804;28;10113;-69
2021/03/09 00:24:18;;;;;;;;;35.25;30.25;;;;;24.00;69.31;99350.31;4953545;28;10286;-67
2021/03/09 00:26:46;;;;;;;;;36.25;31.75;;;;;24.02;70.98;99360.75;4953497;28;10074;-69
2021/03/09 00:29:15;;;;;;;;;30.00;29.50;;;;;23.99;71.02;99362.22;4953789;28;10333;-69
2021/03/09 00:31:43;;;;;;;;;30.00;29.75;;;;;23.89;69.25;99361.91;4952712;28;9800;-69
2021/03/09 00:34:12;;;;;;;;;28.75;24.50;;;;;23.94;68.49;99375.94;4952687;29;10039;-70
2021/03/09 00:36:42;;;;;;;;;72.75;64.00;;;;;23.93;70.96;99374.34;4953260;28;9762;-70
2021/03/09 00:39:10;;;;;;;;;42.75;33.00;;;;;23.94;69.90;99378.63;4963207;28;12466;-70
2021/03/09 00:41:38;;;;;;;;;48.50;35.50;;;;;23.97;69.19;99380.63;4956528;28;10656;-70
2021/03/09 00:44:06;;;;;;;;;35.00;31.00;;;;;23.94;70.35;99377.84;4956414;28;10684;-70
2021/03/09 00:46:35;;;;;;;;;35.75;31.25;;;;;23.97;70.32;99386.03;4960547;28;10131;-70
2021/03/09 00:49:03;;;;;;;;;32.25;30.25;;;;;23.99;68.50;99391.09;4965793;28;10235;-70
2021/03/09 00:51:32;;;;;;;;;33.50;30.25;;;;;24.00;68.62;99385.34;4965992;28;10133;-70
2021/03/09 00:54:00;;;;;;;;;36.75;30.00;;;;;24.02;68.00;99393.09;4963138;28;10061;-70
2021/03/09 00:56:29;;;;;;;;;25.50;19.25;;;;;24.04;68.06;99399.72;4968750;28;10085;-70
2021/03/09 00:58:57;;;;;;;;;41.25;35.75;;;;;24.05;68.20;99398.59;4973732;28;10178;-70
2021/03/09 01:01:25;;;;;;;;;30.25;28.25;;;;;24.08;67.68;99403.31;4963441;28;10391;-71
2021/03/09 01:04:05;;;;;;;;;41.00;35.25;;;;;24.10;67.80;99402.19;4972012;28;10403;-75
2021/03/09 01:06:34;;;;;;;;;32.50;31.00;;;;;24.17;67.98;99413.94;4963830;28;10737;-73
2021/03/09 01:09:03;;;;;;;;;40.00;31.25;;;;;24.24;67.55;99410.69;4979046;28;10179;-73
2021/03/09 01:11:34;;;;;;;;;37.00;33.00;;;;;24.28;67.58;99427.78;4970995;28;11123;-73
2021/03/09 01:14:02;;;;;;;;;35.50;28.25;;;;;24.26;67.54;99413.84;4973112;28;10262;-73
2021/03/09 01:16:30;;;;;;;;;30.50;27.00;;;;;24.37;67.26;99431.91;4973675;28;10269;-72
2021/03/09 01:18:59;;;;;;;;;28.25;28.00;;;;;24.41;67.55;99429.31;4973903;28;11002;-72
2021/03/09 01:21:27;;;;;;;;;45.75;34.50;;;;;24.46;67.69;99434.47;4974445;28;10237;-73
2021/03/09 01:23:56;;;;;;;;;36.25;30.75;;;;;24.49;67.39;99439.19;4974738;28;10504;-72
2021/03/09 01:26:24;;;;;;;;;39.25;32.00;;;;;24.50;67.72;99440.75;4974096;28;10174;-73
2021/03/09 01:28:52;;;;;;;;;41.00;33.25;;;;;24.63;67.05;99450.38;4973772;28;10221;-72
2021/03/09 01:31:20;;;;;;;;;31.50;30.00;;;;;24.59;67.39;99444.09;4973358;28;10333;-72
2021/03/09 01:33:49;;;;;;;;;35.00;30.75;;;;;24.71;67.33;99448.63;4973528;28;10173;-71
2021/03/09 01:36:17;;;;;;;;;38.75;31.50;;;;;24.73;68.91;99465.25;4972485;28;10272;-71
2021/03/09 01:38:46;;;;;;;;;32.00;29.25;;;;;24.78;67.84;99459.63;4972880;28;10091;-71
2021/03/09 01:41:15;;;;;;;;;37.00;31.75;;;;;24.83;68.77;99472.09;4970103;28;9978;-72
2021/03/09 01:43:43;;;;;;;;;37.00;30.00;;;;;24.92;68.24;99473.50;4954033;28;10081;-73
2021/03/09 01:46:14;;;;;;;;;29.50;29.00;;;;;24.98;66.94;99471.38;4955378;28;10177;-72
2021/03/09 01:48:46;;;;;;;;;29.00;28.00;;;;;24.98;67.34;99472.16;4954212;28;9820;-71
2021/03/09 01:51:20;;;;;;;;;35.25;30.00;;;;;25.07;67.77;99469.31;4955238;28;9785;-73
2021/03/09 01:53:48;;;;;;;;;29.00;26.50;;;;;25.14;67.23;99472.19;4955759;28;10240;-72
2021/03/09 01:56:17;;;;;;;;;30.50;27.75;;;;;25.16;66.83;99467.22;4955640;28;9899;-70
2021/03/09 01:58:49;;;;;;;;;37.25;30.75;;;;;25.26;66.65;99466.72;4955424;28;9973;-72
2021/03/09 02:01:17;;;;;;;;;37.50;29.00;;;;;25.28;66.96;99458.28;4954032;28;10151;-72
2021/03/09 02:03:46;;;;;;;;;35.25;30.75;;;;;25.36;66.72;99465.44;4955755;28;10079;-72
2021/03/09 02:06:18;;;;;;;;;33.75;32.25;;;;;25.47;66.63;99471.88;4955427;28;9807;-72
2021/03/09 02:08:47;;;;;;;;;35.75;32.00;;;;;25.42;65.86;99461.34;4955830;28;9806;-72
2021/03/09 02:11:39;;;;;;;;;34.75;30.25;;;;;25.55;65.90;99475.56;4954569;28;9817;-73
2021/03/09 02:14:47;;;;;;;;;37.00;31.75;;;;;25.51;66.11;99478.16;4955504;28;10080;-73
2021/03/09 02:17:37;;;;;;;;;38.75;31.25;;;;;25.54;65.90;99482.09;4954468;28;9922;-73
2021/03/09 02:20:38;;;;;;;;;34.00;29.50;;;;;25.52;65.85;99477.03;4955550;28;10746;-72
2021/03/09 02:23:30;;;;;;;;;35.00;28.50;;;;;25.54;65.74;99471.28;4955435;28;9728;-73
2021/03/09 02:26:38;;;;;;;;;32.50;29.25;;;;;25.56;66.18;99482.53;4955529;28;9745;-73
2021/03/09 02:29:45;;;;;;;;;30.75;29.50;;;;;25.61;65.67;99477.66;4955425;28;9907;-71
2021/03/09 02:32:19;;;;;;;;;33.00;30.00;;;;;25.67;65.81;99478.97;4955104;28;9735;-75
2021/03/09 02:34:53;;;;;;;;;29.25;24.50;;;;;25.74;65.93;99478.38;4952692;28;9739;-73
2021/03/09 02:37:24;;;;;;;;;30.50;29.00;;;;;25.82;65.51;99482.81;4956587;28;9558;-73
2021/03/09 02:39:52;;;;;;;;;32.75;27.50;;;;;25.90;65.66;99481.06;4958978;28;9733;-73
2021/03/09 02:42:25;;;;;;;;;33.50;28.00;;;;;25.93;65.28;99483.84;4973302;28;9657;-73
2021/03/09 02:44:59;;;;;;;;;30.00;28.00;;;;;25.92;65.11;99471.47;4973282;28;9831;-73
2021/03/09 02:47:29;;;;;;;;;29.00;25.67;;;;;25.97;65.38;99476.59;4973324;28;9603;-73
2021/03/09 02:50:01;;;;;;;;;25.67;23.67;;;;;26.02;65.23;99476.31;4973274;28;9346;-73
2021/03/09 02:52:31;;;;;;;;;25.00;24.00;;;;;25.99;65.10;99468.94;4973174;28;9284;-73
2021/03/09 02:55:01;;;;;;;;;29.00;27.67;;;;;26.07;64.94;99480.66;4973227;28;9325;-73
2021/03/09 02:57:32;;;;;;;;;30.33;25.33;;;;;26.10;64.72;99482.66;4959697;28;9364;-74
2021/03/09 03:00:01;;;;;;;;;25.00;22.00;;;;;26.17;64.68;99471.22;4961590;28;9288;-74
2021/03/09 03:02:36;;;;;;;;;24.67;22.33;;;;;26.24;64.66;99472.16;4958750;28;9335;-73
2021/03/09 03:05:10;;;;;;;;;25.00;23.25;;;;;26.33;64.22;99466.59;4961579;28;9242;-74
2021/03/09 03:07:39;;;;;;;;;27.67;26.00;;;;;26.40;64.42;99465.94;4959923;28;9387;-73
2021/03/09 03:10:13;;;;;;;;;28.00;28.00;;;;;26.46;64.20;99461.84;4961587;28;10065;-73
2021/03/09 03:12:43;;;;;;;;;28.33;24.00;;;;;26.50;64.09;99466.19;4966888;28;9170;-71
2021/03/09 03:15:14;;;;;;;;;26.33;23.67;;;;;26.53;64.07;99464.69;4964134;28;9338;-72
2021/03/09 03:17:44;;;;;;;;;24.67;24.67;;;;;26.55;63.94;99457.00;4973663;28;9345;-72
2021/03/09 03:20:16;;;;;;;;;21.00;21.00;;;;;26.57;63.88;99454.72;4973476;28;9270;-71
2021/03/09 03:22:46;;;;;;;;;25.67;23.00;;;;;26.63;63.90;99464.13;4973165;28;9287;-72
2021/03/09 03:25:15;;;;;;;;;32.00;26.67;;;;;26.65;63.45;99451.81;4973590;28;9283;-71
2021/03/09 03:27:45;;;;;;;;;26.00;24.00;;;;;26.71;63.32;99456.94;4973240;28;9536;-71
2021/03/09 03:30:16;;;;;;;;;25.33;22.67;;;;;26.77;63.17;99453.56;4973377;28;9115;-72
2021/03/09 03:32:46;;;;;;;;;29.33;25.67;;;;;26.81;62.83;99440.13;4973525;28;9243;-72
2021/03/09 03:35:16;;;;;;;;;28.00;24.67;;;;;26.86;63.59;99442.53;4973223;28;9097;-74
2021/03/09 03:37:45;;;;;;;;;28.00;24.00;;;;;26.90;63.51;99440.66;4971775;28;9027;-74
2021/03/09 03:40:17;;;;;;;;;29.67;28.33;;;;;26.91;63.30;99439.53;4972195;28;9264;-72
2021/03/09 03:42:47;;;;;;;;;24.67;23.67;;;;;26.92;63.23;99431.06;4972066;28;9351;-73
2021/03/09 03:45:19;;;;;;;;;34.67;27.67;;;;;26.92;62.93;99430.25;4933663;29;9281;-72
2021/03/09 03:47:59;;;;;;;;;25.00;25.00;;;;;26.98;62.90;99431.56;4933460;29;9214;-74
2021/03/09 03:50:30;;;;;;;;;25.00;22.33;;;;;26.97;62.71;99427.28;4933521;29;9184;-72
2021/03/09 03:53:20;;;;;;;;;24.67;24.67;;;;;27.10;62.30;99419.78;4933521;29;9128;-76
2021/03/09 03:56:16;;;;;;;;;28.67;25.00;;;;;27.21;62.76;99418.06;4939293;28;9931;-72
2021/03/09 03:58:54;;;;;;;;;35.33;29.33;;;;;27.27;62.95;99414.69;4960304;28;9098;-72
2021/03/09 04:01:25;;;;;;;;;23.67;20.67;;;;;27.30;62.27;99419.34;4952586;28;9040;-72
2021/03/09 04:03:56;;;;;;;;;26.00;25.00;;;;;27.33;62.71;99412.41;4952542;28;9043;-72
2021/03/09 04:06:28;;;;;;;;;27.67;23.33;;;;;27.36;62.42;99409.00;4953060;28;9252;-72
2021/03/09 04:09:04;;;;;;;;;27.33;25.33;;;;;27.38;62.01;99401.28;4972793;28;8962;-72
2021/03/09 04:11:36;;;;;;;;;29.00;26.67;;;;;27.45;62.57;99392.47;4932933;29;9058;-75
2021/03/09 04:14:06;;;;;;;;;27.67;26.33;;;;;27.49;62.32;99388.69;4934321;29;9292;-75
2021/03/09 04:16:36;;;;;;;;;30.75;24.75;;;;;27.48;62.62;99379.00;4939189;28;9023;-74
2021/03/09 04:19:06;;;;;;;;;25.00;25.00;;;;;27.55;61.09;99378.31;4952933;28;9617;-74
2021/03/09 04:21:36;;;;;;;;;22.25;21.50;;;;;27.62;61.52;99378.47;4952478;28;8955;-72
2021/03/09 04:24:06;;;;;;;;;24.33;22.67;;;;;27.67;61.35;99380.84;4951542;28;8970;-73
2021/03/09 04:26:35;;;;;;;;;23.00;22.00;;;;;27.75;61.17;99374.38;4951849;28;9329;-74
2021/03/09 04:29:04;;;;;;;;;25.50;23.25;;;;;27.84;62.04;99372.19;4951535;28;8856;-72
2021/03/09 04:31:32;;;;;;;;;27.50;26.00;;;;;27.91;61.06;99369.56;4951287;28;8887;-73
2021/03/09 04:34:01;;;;;;;;;24.75;23.75;;;;;27.94;60.53;99370.78;4952293;28;8965;-72
2021/03/09 04:36:31;;;;;;;;;27.25;22.00;;;;;28.04;60.66;99375.56;4958555;28;8841;-70
2021/03/09 04:39:00;;;;;;;;;30.33;24.00;;;;;28.01;59.89;99353.81;4957880;28;8869;-72
2021/03/09 04:41:29;;;;;;;;;29.00;26.75;;;;;28.13;59.92;99357.06;4957239;28;8977;-72
2021/03/09 04:43:59;;;;;;;;;24.75;24.50;;;;;28.22;60.93;99356.81;4961981;28;8850;-71
2021/03/09 04:46:28;;;;;;;;;29.50;26.75;;;;;28.29;61.08;99354.19;4962113;28;8859;-70
2021/03/09 04:48:59;;;;;;;;;29.25;23.25;;;;;28.34;59.69;99344.94;4959393;28;8848;-71
2021/03/09 04:51:28;;;;;;;;;22.00;22.00;;;;;28.35;59.58;99336.44;4960020;28;8853;-73
2021/03/09 04:53:59;;;;;;;;;23.50;21.75;;;;;28.39;59.14;99339.19;4958104;28;8844;-72
2021/03/09 04:56:27;;;;;;;;;29.00;27.00;;;;;28.46;59.94;99333.84;4952566;28;8864;-72
2021/03/09 04:58:55;;;;;;;;;26.00;24.00;;;;;28.56;59.85;99323.09;4950425;28;8864;-73
2021/03/09 05:01:24;;;;;;;;;28.75;25.75;;;;;28.66;58.80;99316.19;4951602;29;9821;-73
2021/03/09 05:03:53;;;;;;;;;28.50;28.50;;;;;28.81;60.68;99317.88;4951755;28;8884;-72
2021/03/09 05:06:21;;;;;;;;;21.75;21.25;;;;;28.90;58.70;99312.16;4960009;28;8837;-72
2021/03/09 05:08:50;;;;;;;;;24.00;23.00;;;;;28.93;60.00;99297.06;4970873;28;8865;-72
2021/03/09 05:11:18;;;;;;;;;30.50;30.00;;;;;28.96;58.52;99299.78;4966819;28;8849;-73
2021/03/09 05:13:46;;;;;;;;;27.25;27.25;;;;;28.96;59.86;99288.16;4952592;28;8868;-73
2021/03/09 05:16:14;;;;;;;;;25.25;25.25;;;;;29.00;58.64;99287.03;4955109;28;8871;-74
2021/03/09 05:18:43;;;;;;;;;30.00;25.75;;;;;29.00;58.01;99273.44;4943977;28;8937;-70
2021/03/09 05:21:20;;;;;;;;;30.50;29.00;;;;;29.11;57.56;99268.09;4952089;28;8881;-73
2021/03/09 05:23:48;;;;;;;;;29.75;28.75;;;;;29.18;56.48;99266.19;4956449;28;8930;-74
2021/03/09 05:26:17;;;;;;;;;24.75;24.50;;;;;29.31;56.38;99263.19;4958264;28;8857;-72
2021/03/09 05:28:48;;;;;;;;;24.25;23.75;;;;;29.36;59.41;99241.84;4952976;28;8895;-74
2021/03/09 05:31:16;;;;;;;;;26.00;26.00;;;;;29.47;59.36;99253.59;4948644;28;8852;-76
2021/03/09 05:33:46;;;;;;;;;27.25;26.75;;;;;29.41;56.46;99241.50;4952551;28;8864;-75
2021/03/09 05:36:14;;;;;;;;;30.25;29.25;;;;;29.50;55.03;99239.25;4953981;28;8890;-72
2021/03/09 05:38:46;;;;;;;;;30.25;29.00;;;;;29.50;58.87;99222.94;4947242;28;8898;-73
2021/03/09 05:41:14;;;;;;;;;28.25;28.25;;;;;29.57;56.01;99224.91;4939302;28;8848;-72
2021/03/09 05:43:43;;;;;;;;;38.00;34.75;;;;;29.58;58.72;99222.97;4950153;28;8990;-72
2021/03/09 05:46:11;;;;;;;;;33.67;30.67;;;;;29.50;57.92;99212.06;4940012;28;8855;-74
2021/03/09 05:48:40;;;;;;;;;30.75;30.00;;;;;29.50;58.32;99219.44;4964413;28;9073;-73
2021/03/09 05:51:09;;;;;;;;;25.50;25.50;;;;;29.45;57.36;99209.72;4961854;28;8844;-75
2021/03/09 05:53:37;;;;;;;;;25.25;25.25;;;;;29.46;55.30;99203.13;4958217;28;8958;-74
2021/03/09 05:56:07;;;;;;;;;26.00;26.00;;;;;29.50;57.93;99197.69;4962818;28;8849;-77
2021/03/09 05:58:35;;;;;;;;;29.25;29.25;;;;;29.51;56.06;99188.38;4965064;28;8856;-72
2021/03/09 06:01:03;;;;;;;;;33.00;30.75;;;;;29.54;56.41;99180.22;4960349;28;8868;-72
2021/03/09 06:03:31;;;;;;;;;26.25;26.25;;;;;29.64;55.94;99178.72;4971623;28;8886;-70
2021/03/09 06:06:01;;;;;;;;;30.25;29.00;;;;;29.75;56.35;99168.66;4953762;28;8880;-72
2021/03/09 06:08:30;;;;;;;;;24.25;24.25;;;;;29.90;55.99;99164.03;4954544;28;8856;-72
2021/03/09 06:11:13;;;;;;;;;27.50;27.50;;;;;30.00;57.01;99162.47;4954516;28;8875;-75
2021/03/09 06:13:42;;;;;;;;;33.25;32.25;;;;;30.09;54.43;99154.72;4935054;29;8949;-78
2021/03/09 06:16:11;;;;;;;;;24.25;23.25;;;;;30.13;55.10;99141.91;4956887;28;8872;-76
2021/03/09 06:18:53;;;;;;;;;27.50;27.50;;;;;30.38;56.03;99148.13;4954601;28;8958;-73
2021/03/09 06:21:23;;;;;;;;;25.50;25.50;;;;;30.49;54.81;99143.47;4955224;28;8879;-80
2021/03/09 06:23:53;;;;;;;;;25.00;23.75;;;;;30.62;55.74;99129.47;4957774;28;9561;-73
2021/03/09 06:26:36;;;;;;;;;29.00;27.25;;;;;30.73;53.98;99124.78;4949069;28;8855;-73
2021/03/09 06:29:12;;;;;;;;;27.00;27.00;;;;;30.78;57.30;99122.44;4964635;28;9613;-75
2021/03/09 06:32:04;;;;;;;;;28.75;28.50;;;;;30.75;54.50;99120.50;4966373;28;8830;-74
2021/03/09 06:34:34;;;;;;;;;27.50;27.50;;;;;30.75;53.64;99120.50;4968374;28;8932;-73
2021/03/09 06:37:17;;;;;;;;;27.50;27.50;;;;;30.80;57.20;99113.88;4969215;28;8841;-73
2021/03/09 06:40:12;;;;;;;;;28.75;27.75;;;;;30.81;54.84;99110.00;4965334;28;8869;-73
2021/03/09 06:42:42;;;;;;;;;27.75;25.25;;;;;30.73;54.53;99098.34;4966858;28;8873;-73
2021/03/09 06:45:15;;;;;;;;;26.75;26.25;;;;;30.85;53.48;99094.41;4963126;28;8955;-75
2021/03/09 06:47:50;;;;;;;;;25.00;25.00;;;;;30.95;53.43;99096.34;4961262;28;8857;-76
2021/03/09 06:50:21;;;;;;;;;23.00;22.75;;;;;31.00;55.96;99089.69;4957298;28;8874;-74
2021/03/09 06:53:03;;;;;;;;;30.75;28.75;;;;;31.01;53.21;99081.13;4942340;28;8900;-73
2021/03/09 06:55:33;;;;;;;;;26.00;26.00;;;;;31.03;56.14;99078.78;4944113;28;8861;-73
2021/03/09 06:58:11;;;;;;;;;25.00;25.00;;;;;31.01;55.65;99075.69;4950954;28;9628;-76
2021/03/09 07:00:40;;;;;;;;;26.75;26.75;;;;;30.94;51.74;99069.47;4950579;28;9628;-79
2021/03/09 07:03:33;;;;;;;;;24.75;24.75;;;;;31.00;51.89;99057.78;4962375;28;9042;-76
2021/03/09 07:06:02;;;;;;;;;26.00;26.00;;;;;31.08;51.39;99058.53;4962589;28;8865;-74
2021/03/09 07:08:31;;;;;;;;;27.00;27.00;;;;;31.14;54.99;99052.28;4958879;28;8880;-77
2021/03/09 07:10:59;;;;;;;;;29.00;27.50;;;;;31.15;51.82;99042.19;4957090;28;8957;-74
2021/03/09 07:13:29;;;;;;;;;24.75;24.25;;;;;31.12;52.00;99032.81;4951588;28;8848;-76
2021/03/09 07:15:58;;;;;;;;;24.25;23.50;;;;;31.21;55.53;99037.81;4950838;28;8848;-75
2021/03/09 07:18:28;;;;;;;;;26.00;26.00;;;;;31.13;51.51;99011.78;4953998;28;8871;-75
2021/03/09 07:20:57;;;;;;;;;24.50;24.50;;;;;31.22;53.63;99019.53;4951579;28;8890;-74
2021/03/09 07:23:26;;;;;;;;;24.75;23.00;;;;;31.17;55.05;99012.56;4951761;28;8852;-74
2021/03/09 07:25:58;;;;;;;;;26.50;26.50;;;;;31.23;52.61;99007.47;4941985;28;8883;-74
2021/03/09 07:28:34;;;;;;;;;27.25;27.00;;;;;31.22;51.88;98992.28;4943524;28;8860;-74
2021/03/09 07:31:07;;;;;;;;;26.25;25.50;;;;;31.25;51.96;99003.16;4948736;28;9691;-79
2021/03/09 07:33:36;;;;;;;;;25.50;24.50;;;;;31.35;53.55;98990.63;4954999;28;8877;-74
2021/03/09 07:36:05;;;;;;;;;25.25;24.00;;;;;31.38;51.22;98973.47;4965449;28;8919;-73
2021/03/09 07:38:33;;;;;;;;;26.75;26.00;;;;;31.50;50.38;98975.72;4965418;28;8927;-72
2021/03/09 07:41:02;;;;;;;;;24.00;23.50;;;;;31.60;51.91;98974.88;4957328;28;8852;-75
2021/03/09 07:43:32;;;;;;;;;27.25;27.25;;;;;31.61;49.94;98970.19;4964639;28;8983;-73
2021/03/09 07:46:01;;;;;;;;;24.50;24.50;;;;;31.63;52.69;98965.88;4954898;28;8878;-73
2021/03/09 07:48:28;;;;;;;;;25.25;25.25;;;;;31.71;53.53;98961.94;4953948;28;8954;-76
2021/03/09 07:51:04;;;;;;;;;22.25;20.75;;;;;31.68;53.35;98956.50;4962803;28;8833;-75
2021/03/09 07:53:31;;;;;;;;;25.75;24.75;;;;;31.65;49.33;98960.03;4968893;28;8822;-75
2021/03/09 07:56:18;;;;;;;;;25.50;25.25;;;;;31.42;50.21;98922.44;4954383;28;8827;-73
2021/03/09 07:58:45;;;;;;;;;28.75;26.25;;;;;31.68;52.61;98951.03;4959262;28;8809;-74
2021/03/09 08:01:12;;;;;;;;;23.50;23.25;;;;;31.69;54.13;98947.16;4953206;28;8833;-73
2021/03/09 08:03:41;;;;;;;;;29.25;27.50;;;;;31.58;53.08;98944.50;4959104;28;9546;-74
2021/03/09 08:06:40;;;;;;;;;28.75;28.00;;;;;31.53;48.74;98942.22;4951024;28;8828;-75
2021/03/09 08:09:07;;;;;;;;;22.75;22.75;;;;;31.52;51.79;98935.19;4958847;28;8809;-74
2021/03/09 08:11:36;;;;;;;;;26.75;25.25;;;;;31.58;51.33;98928.13;4943064;28;8811;-76
2021/03/09 08:14:20;;;;;;;;;26.50;25.50;;;;;31.62;54.11;98923.44;4949993;28;8946;-75
2021/03/09 08:16:50;;;;;;;;;25.00;24.50;;;;;31.56;51.16;98913.34;4950941;28;8860;-74
2021/03/09 08:19:39;;;;;;;;;27.75;25.00;;;;;31.63;50.80;98924.22;4954024;28;8849;-74
2021/03/09 08:22:08;;;;;;;;;29.00;28.75;;;;;31.61;49.86;98916.44;4946783;28;8868;-76
2021/03/09 08:24:57;;;;;;;;;31.00;31.00;;;;;31.71;49.92;98910.13;4949524;28;8936;-77
2021/03/09 08:27:32;;;;;;;;;30.75;29.75;;;;;31.87;50.26;98909.59;4946637;28;8855;-75
2021/03/09 08:30:31;;;;;;;;;19.50;19.25;;;;;32.03;50.48;98907.09;4945876;28;8805;-73
2021/03/09 08:33:24;;;;;;;;;26.50;26.50;;;;;32.18;49.40;98913.16;4948388;28;8912;-73
2021/03/09 08:35:52;;;;;;;;;26.25;23.75;;;;;32.26;51.70;98914.66;4956222;28;9022;-74
2021/03/09 08:38:24;;;;;;;;;23.00;22.25;;;;;32.22;50.59;98907.66;4964664;28;8869;-74
2021/03/09 08:41:02;;;;;;;;;27.25;25.75;;;;;32.09;49.12;98899.22;4961123;28;8876;-73
2021/03/09 08:43:31;;;;;;;;;32.00;31.75;;;;;32.02;50.17;98902.03;4963300;28;8842;-74
2021/03/09 08:46:02;;;;;;;;;27.75;26.75;;;;;31.95;50.07;98893.91;4957217;28;9574;-74
2021/03/09 08:48:44;;;;;;;;;25.50;24.00;;;;;31.96;49.68;98896.25;4947961;28;8857;-76
2021/03/09 08:51:37;;;;;;;;;20.00;19.50;;;;;32.01;51.40;98893.06;4959672;28;8821;-73
2021/03/09 08:54:24;;;;;;;;;30.00;28.25;;;;;32.02;52.23;98891.88;4948001;28;8864;-73
2021/03/09 08:56:54;;;;;;;;;37.00;32.25;;;;;31.95;49.25;98896.66;4950230;28;8932;-72
2021/03/09 08:59:25;;;;;;;;;24.00;23.50;;;;;31.87;50.52;98895.94;4959337;28;8875;-74
2021/03/09 09:02:14;;;;;;;;;25.00;25.00;;;;;31.95;50.42;98899.38;4953453;28;8849;-74
2021/03/09 09:04:47;;;;;;;;;28.00;27.50;;;;;31.92;49.20;98887.31;4945092;28;8879;-73
2021/03/09 09:07:28;;;;;;;;;28.00;26.25;;;;;31.88;49.03;98886.59;4955004;28;8898;-76
2021/03/09 09:10:25;;;;;;;;;26.75;24.25;;;;;31.97;49.48;98895.06;4952817;28;8830;-75
2021/03/09 09:13:00;;;;;;;;;24.50;24.00;;;;;32.00;50.82;98888.78;4951491;28;8882;-76
2021/03/09 09:15:41;;;;;;;;;16.50;16.50;;;;;31.93;47.83;98883.41;4951430;28;8888;-74
2021/03/09 09:18:37;;;;;;;;;21.75;21.75;;;;;31.91;50.15;98890.44;4948947;28;8840;-75
2021/03/09 09:21:06;;;;;;;;;28.00;26.25;;;;;31.88;50.57;98885.81;4951469;28;8935;-72
2021/03/09 09:23:36;;;;;;;;;22.00;22.00;;;;;31.82;50.24;98884.69;4947784;28;9622;-75
2021/03/09 09:26:05;;;;;;;;;26.00;24.50;;;;;31.71;49.96;98882.09;4948518;28;8884;-73
2021/03/09 09:28:38;;;;;;;;;26.75;26.75;;;;;31.64;51.91;98890.31;4951370;28;8848;-76
2021/03/09 09:31:17;;;;;;;;;29.75;29.75;;;;;31.57;51.39;98893.88;4964447;28;9010;-72
2021/03/09 09:33:54;;;;;;;;;26.75;26.75;;;;;31.41;50.76;98888.16;4960676;28;8996;-73
2021/03/09 09:36:23;;;;;;;;;26.75;26.00;;;;;31.43;52.47;98897.50;4966526;28;8954;-73
2021/03/09 09:38:54;;;;;;;;;30.75;29.75;;;;;31.42;51.90;98900.63;4944463;28;8852;-73
2021/03/09 09:41:25;;;;;;;;;30.00;30.00;;;;;31.41;51.51;98890.91;4957192;28;8878;-71
2021/03/09 09:43:54;;;;;;;;;28.50;28.50;;;;;31.25;52.88;98877.00;4949820;28;8910;-73
2021/03/09 09:46:27;;;;;;;;;26.00;26.00;;;;;31.24;51.07;98889.09;4950532;28;8871;-72
2021/03/09 09:48:59;;;;;;;;;26.75;26.75;;;;;31.12;49.91;98880.22;4956455;28;8972;-72
2021/03/09 09:51:46;;;;;;;;;26.25;25.00;;;;;31.02;50.41;98869.41;4952257;28;8903;-75
2021/03/09 09:54:18;;;;;;;;;32.00;29.00;;;;;31.18;51.26;98893.44;4955284;28;8874;-73
2021/03/09 09:56:47;;;;;;;;;26.75;24.50;;;;;31.15;51.56;98895.03;4956079;28;8873;-73
2021/03/09 09:59:28;;;;;;;;;26.75;26.50;;;;;31.08;50.61;98895.03;4957429;28;9688;-74
2021/03/09 10:01:56;;;;;;;;;25.25;25.25;;;;;31.06;49.67;98905.56;4958758;28;8908;-72
2021/03/09 10:04:33;;;;;;;;;24.75;24.75;;;;;31.07;49.34;98907.88;4960514;28;8953;-71
2021/03/09 10:07:13;;;;;;;;;21.00;21.00;;;;;31.04;49.70;98908.69;4961967;28;8846;-71
2021/03/09 10:09:59;;;;;;;;;25.25;25.00;;;;;31.10;49.28;98919.94;4958300;28;8845;-71
2021/03/09 10:12:43;;;;;;;;;26.75;25.25;;;;;31.04;50.14;98908.69;4957234;28;9605;-71
2021/03/09 10:15:11;;;;;;;;;22.75;22.75;;;;;31.05;50.33;98910.25;4960388;28;8857;-75
2021/03/09 10:17:39;;;;;;;;;21.25;21.25;;;;;31.04;49.94;98914.13;4958411;28;8861;-73
2021/03/09 10:20:27;;;;;;;;;25.00;25.00;;;;;31.02;49.71;98929.34;4960762;28;8975;-72
2021/03/09 10:23:03;;;;;;;;;27.25;26.50;;;;;30.94;49.61;98917.72;4961664;28;8908;-74
2021/03/09 10:25:32;;;;;;;;;27.25;25.00;;;;;30.92;49.50;98919.28;4963383;28;8863;-74
2021/03/09 10:28:04;;;;;;;;;28.25;27.25;;;;;30.93;49.44;98923.56;4957358;28;8878;-74
2021/03/09 10:30:41;;;;;;;;;27.25;25.50;;;;;30.91;49.46;98923.94;4956269;28;9664;-72
2021/03/09 10:33:11;;;;;;;;;28.50;28.50;;;;;30.83;49.58;98915.03;4948684;28;8948;-75
2021/03/09 10:36:13;;;;;;;;;25.25;25.25;;;;;30.83;49.48;98917.78;4949866;28;8891;-74
2021/03/09 10:38:41;;;;;;;;;24.50;24.50;;;;;30.77;49.72;98924.81;4949676;28;8864;-71
2021/03/09 10:41:26;;;;;;;;;26.00;26.00;;;;;30.77;49.47;98929.47;4954991;28;8868;-75
2021/03/09 10:43:54;;;;;;;;;26.25;25.25;;;;;30.66;50.10;98924.09;4951724;28;8865;-72
2021/03/09 10:46:22;;;;;;;;;27.00;27.00;;;;;30.75;49.85;98931.81;4950761;28;8850;-73
2021/03/09 10:48:51;;;;;;;;;30.75;30.25;;;;;30.75;50.28;98938.03;4946450;28;8848;-71
2021/03/09 10:51:21;;;;;;;;;26.75;26.75;;;;;30.69;50.18;98928.72;4943943;28;8982;-71
2021/03/09 10:53:49;;;;;;;;;28.25;27.25;;;;;30.74;50.10;98941.16;4942460;28;8895;-71
2021/03/09 10:56:18;;;;;;;;;27.75;27.25;;;;;30.70;49.69;98935.72;4951211;28;8858;-76
2021/03/09 10:58:46;;;;;;;;;30.50;30.00;;;;;30.65;50.18;98932.66;4959234;28;8880;-76
2021/03/09 11:01:14;;;;;;;;;36.00;34.50;;;;;30.65;50.30;98938.88;4946286;28;8855;-75
2021/03/09 11:03:42;;;;;;;;;34.25;32.25;;;;;30.65;49.62;98949.75;4943235;29;8918;-74
2021/03/09 11:06:11;;;;;;;;;26.50;26.50;;;;;30.63;50.21;98954.06;4945387;28;8878;-74
2021/03/09 11:08:40;;;;;;;;;30.75;29.25;;;;;30.57;49.97;98950.94;4949029;28;8883;-75
2021/03/09 11:11:08;;;;;;;;;29.00;27.25;;;;;30.58;50.42;98965.34;4951844;28;8876;-74
2021/03/09 11:13:36;;;;;;;;;26.00;25.50;;;;;30.51;50.24;98957.97;4953762;28;8875;-74
2021/03/09 11:16:05;;;;;;;;;27.00;27.00;;;;;30.55;51.28;98971.56;4957119;28;8848;-74
2021/03/09 11:18:34;;;;;;;;;29.25;29.25;;;;;30.45;50.03;98960.31;4959017;28;8836;-74
2021/03/09 11:21:03;;;;;;;;;25.75;25.75;;;;;30.50;51.02;98973.50;4956557;28;8910;-74
2021/03/09 11:23:31;;;;;;;;;27.25;27.00;;;;;30.45;50.77;98968.47;4958566;28;8853;-73
2021/03/09 11:26:00;;;;;;;;;29.25;28.25;;;;;30.38;50.89;98962.28;4955019;28;8871;-74
2021/03/09 11:28:28;;;;;;;;;28.00;28.00;;;;;30.42;51.34;98973.94;4956162;28;8860;-74
2021/03/09 11:30:58;;;;;;;;;29.25;28.50;;;;;30.36;50.87;98972.78;4952383;28;8879;-75
2021/03/09 11:33:34;;;;;;;;;30.00;29.50;;;;;30.24;51.05;98960.38;4945671;28;8854;-75
2021/03/09 11:36:03;;;;;;;;;28.75;28.75;;;;;30.32;50.68;98978.22;4951743;28;8837;-74
2021/03/09 11:38:31;;;;;;;;;28.25;28.25;;;;;30.28;50.84;98991.06;4955889;28;8941;-75
2021/03/09 11:40:59;;;;;;;;;30.75;30.75;;;;;30.26;50.93;98987.19;4954978;28;8865;-76
2021/03/09 11:43:28;;;;;;;;;33.00;32.00;;;;;30.25;51.32;98988.34;4955380;28;8843;-72
2021/03/09 11:45:56;;;;;;;;;35.00;32.25;;;;;30.18;51.62;98975.53;4954516;28;8846;-73
2021/03/09 11:48:25;;;;;;;;;30.00;30.00;;;;;30.15;51.19;98987.22;4956721;28;8864;-72
2021/03/09 11:50:54;;;;;;;;;36.00;33.75;;;;;30.16;51.29;98991.47;4956627;28;8849;-73